sensor_id;sensor_type;location;lat;lon;timestamp;pressure;altitude;pressure_sealevel;temperature;humidity
20111;BME280;10216;42.658;23.248;2023-07-08T00:00:53;94049.66;;;18.96;84.44
20111;BME280;10216;42.658;23.248;2023-07-08T00:03:19;94044.84;;;18.99;85.50
20111;BME280;10216;42.658;23.248;2023-07-08T00:05:46;94045.66;;;18.93;84.37
20111;BME280;10216;42.658;23.248;2023-07-08T00:08:17;94043.28;;;18.92;84.25
20111;BME280;10216;42.658;23.248;2023-07-08T00:10:43;94046.44;;;19.00;83.74
20111;BME280;10216;42.658;23.248;2023-07-08T00:13:09;94033.03;;;18.97;85.24
20111;BME280;10216;42.658;23.248;2023-07-08T00:15:35;94028.84;;;18.89;83.64
20111;BME280;10216;42.658;23.248;2023-07-08T00:18:03;94030.09;;;18.87;84.62
20111;BME280;10216;42.658;23.248;2023-07-08T00:20:43;94022.13;;;18.75;84.45
20111;BME280;10216;42.658;23.248;2023-07-08T00:23:10;94022.94;;;18.69;85.75
20111;BME280;10216;42.658;23.248;2023-07-08T00:25:35;94019.53;;;18.68;85.45
20111;BME280;10216;42.658;23.248;2023-07-08T00:28:01;94024.34;;;18.71;86.62
20111;BME280;10216;42.658;23.248;2023-07-08T00:30:28;94025.75;;;18.54;85.57
20111;BME280;10216;42.658;23.248;2023-07-08T00:32:55;94031.38;;;18.64;86.13
20111;BME280;10216;42.658;23.248;2023-07-08T00:35:41;94033.75;;;18.66;86.05
20111;BME280;10216;42.658;23.248;2023-07-08T00:43:23;94019.75;;;18.54;86.60
20111;BME280;10216;42.658;23.248;2023-07-08T00:45:51;94015.56;;;18.53;86.54
20111;BME280;10216;42.658;23.248;2023-07-08T00:48:30;94016.78;;;18.50;86.57
20111;BME280;10216;42.658;23.248;2023-07-08T00:50:56;94002.59;;;18.40;87.36
20111;BME280;10216;42.658;23.248;2023-07-08T00:53:34;94001.00;;;18.39;86.43
20111;BME280;10216;42.658;23.248;2023-07-08T00:56:06;94004.22;;;18.34;87.34
20111;BME280;10216;42.658;23.248;2023-07-08T00:58:40;93992.06;;;18.21;88.06
20111;BME280;10216;42.658;23.248;2023-07-08T01:01:08;93991.66;;;18.18;87.64
20111;BME280;10216;42.658;23.248;2023-07-08T01:03:47;94001.06;;;18.12;88.49
20111;BME280;10216;42.658;23.248;2023-07-08T01:06:16;94005.88;;;18.15;88.38
20111;BME280;10216;42.658;23.248;2023-07-08T01:08:42;93996.84;;;18.11;89.69
20111;BME280;10216;42.658;23.248;2023-07-08T01:11:07;93991.06;;;18.03;89.39
20111;BME280;10216;42.658;23.248;2023-07-08T01:13:36;93998.25;;;18.14;89.10
20111;BME280;10216;42.658;23.248;2023-07-08T01:16:03;93992.66;;;18.04;89.08
20111;BME280;10216;42.658;23.248;2023-07-08T01:18:29;93998.06;;;18.09;89.12
20111;BME280;10216;42.658;23.248;2023-07-08T01:20:55;93993.88;;;18.08;88.95
20111;BME280;10216;42.658;23.248;2023-07-08T01:23:22;93993.06;;;17.94;88.30
20111;BME280;10216;42.658;23.248;2023-07-08T01:25:47;93988.88;;;18.00;90.00
20111;BME280;10216;42.658;23.248;2023-07-08T01:28:14;93987.28;;;18.05;89.93
20111;BME280;10216;42.658;23.248;2023-07-08T01:30:44;93981.91;;;18.00;89.74
20111;BME280;10216;42.658;23.248;2023-07-08T01:33:19;93988.66;;;18.01;88.04
20111;BME280;10216;42.658;23.248;2023-07-08T01:35:47;93980.28;;;17.99;89.65
20111;BME280;10216;42.658;23.248;2023-07-08T01:38:17;93984.69;;;17.92;89.47
20111;BME280;10216;42.658;23.248;2023-07-08T01:40:53;94000.50;;;17.84;88.93
20111;BME280;10216;42.658;23.248;2023-07-08T01:43:18;93982.47;;;17.95;89.42
20111;BME280;10216;42.658;23.248;2023-07-08T01:45:44;93982.91;;;17.99;88.38
20111;BME280;10216;42.658;23.248;2023-07-08T01:48:14;93975.47;;;18.03;88.38
20111;BME280;10216;42.658;23.248;2023-07-08T01:50:48;93979.06;;;18.08;88.83
20111;BME280;10216;42.658;23.248;2023-07-08T01:53:18;93980.09;;;18.07;89.82
20111;BME280;10216;42.658;23.248;2023-07-08T01:55:44;93972.28;;;18.14;88.83
20111;BME280;10216;42.658;23.248;2023-07-08T01:58:10;93971.50;;;18.07;88.20
20111;BME280;10216;42.658;23.248;2023-07-08T02:00:35;93976.66;;;18.13;89.14
20111;BME280;10216;42.658;23.248;2023-07-08T02:03:00;93968.91;;;18.07;87.53
20111;BME280;10216;42.658;23.248;2023-07-08T02:05:26;93975.47;;;18.03;87.51
20111;BME280;10216;42.658;23.248;2023-07-08T02:07:52;93956.69;;;17.94;88.90
20111;BME280;10216;42.658;23.248;2023-07-08T02:10:17;93969.47;;;18.02;87.32
20111;BME280;10216;42.658;23.248;2023-07-08T02:12:42;93974.28;;;18.05;87.76
20111;BME280;10216;42.658;23.248;2023-07-08T02:15:09;93969.50;;;17.95;88.25
20111;BME280;10216;42.658;23.248;2023-07-08T02:17:35;93975.94;;;17.86;88.30
20111;BME280;10216;42.658;23.248;2023-07-08T02:20:00;93982.50;;;17.89;88.21
20111;BME280;10216;42.658;23.248;2023-07-08T02:22:26;93985.88;;;17.96;88.44
20111;BME280;10216;42.658;23.248;2023-07-08T02:24:51;93986.72;;;17.77;89.48
20111;BME280;10216;42.658;23.248;2023-07-08T02:27:16;94001.88;;;17.80;88.75
20111;BME280;10216;42.658;23.248;2023-07-08T02:29:42;93998.88;;;17.83;88.72
20111;BME280;10216;42.658;23.248;2023-07-08T02:32:08;93986.88;;;17.95;87.13
20111;BME280;10216;42.658;23.248;2023-07-08T02:34:35;93993.09;;;17.81;88.07
20111;BME280;10216;42.658;23.248;2023-07-08T02:37:00;93996.09;;;17.84;87.98
20111;BME280;10216;42.658;23.248;2023-07-08T02:39:26;93987.50;;;17.84;87.79
20111;BME280;10216;42.658;23.248;2023-07-08T02:41:52;94001.28;;;17.78;89.07
20111;BME280;10216;42.658;23.248;2023-07-08T02:44:17;94004.28;;;17.75;90.23
20111;BME280;10216;42.658;23.248;2023-07-08T02:46:42;94009.66;;;17.80;89.17
20111;BME280;10216;42.658;23.248;2023-07-08T02:49:08;94017.25;;;17.81;89.32
20111;BME280;10216;42.658;23.248;2023-07-08T02:51:33;94015.28;;;17.77;89.52
20111;BME280;10216;42.658;23.248;2023-07-08T02:53:59;94015.66;;;17.74;89.20
20111;BME280;10216;42.658;23.248;2023-07-08T02:56:24;94016.06;;;17.84;89.56
20111;BME280;10216;42.658;23.248;2023-07-08T02:58:52;94015.88;;;17.79;89.18
20111;BME280;10216;42.658;23.248;2023-07-08T03:01:17;94019.47;;;17.78;89.75
20111;BME280;10216;42.658;23.248;2023-07-08T03:03:46;94019.06;;;17.74;89.42
20111;BME280;10216;42.658;23.248;2023-07-08T03:06:12;94019.47;;;17.78;89.68
20111;BME280;10216;42.658;23.248;2023-07-08T03:08:37;94025.47;;;17.72;89.07
20111;BME280;10216;42.658;23.248;2023-07-08T03:11:04;94027.03;;;17.73;88.89
20111;BME280;10216;42.658;23.248;2023-07-08T03:13:30;94024.66;;;17.78;88.93
20111;BME280;10216;42.658;23.248;2023-07-08T03:15:57;94026.28;;;17.85;89.27
20111;BME280;10216;42.658;23.248;2023-07-08T03:18:24;94023.06;;;17.83;88.77
20111;BME280;10216;42.658;23.248;2023-07-08T03:20:52;94019.66;;;17.83;88.87
20111;BME280;10216;42.658;23.248;2023-07-08T03:23:18;94018.88;;;17.82;86.95
20111;BME280;10216;42.658;23.248;2023-07-08T03:25:44;94012.69;;;17.77;87.36
20111;BME280;10216;42.658;23.248;2023-07-08T03:28:09;94007.88;;;17.87;88.77
20111;BME280;10216;42.658;23.248;2023-07-08T03:30:39;94013.47;;;17.84;88.15
20111;BME280;10216;42.658;23.248;2023-07-08T03:33:04;94008.88;;;17.86;87.66
20111;BME280;10216;42.658;23.248;2023-07-08T03:35:30;94012.47;;;17.91;87.18
20111;BME280;10216;42.658;23.248;2023-07-08T03:37:55;94004.88;;;17.90;88.49
20111;BME280;10216;42.658;23.248;2023-07-08T03:40:21;94004.50;;;17.86;88.19
20111;BME280;10216;42.658;23.248;2023-07-08T03:42:46;93998.09;;;17.82;87.18
20111;BME280;10216;42.658;23.248;2023-07-08T03:45:12;94001.28;;;17.91;88.84
20111;BME280;10216;42.658;23.248;2023-07-08T03:47:37;94000.88;;;17.94;87.41
20111;BME280;10216;42.658;23.248;2023-07-08T03:50:03;94000.88;;;18.01;88.07
20111;BME280;10216;42.658;23.248;2023-07-08T03:52:28;93997.06;;;18.03;86.68
20111;BME280;10216;42.658;23.248;2023-07-08T03:54:53;93997.47;;;18.07;86.87
20111;BME280;10216;42.658;23.248;2023-07-08T03:57:19;93985.47;;;18.12;87.38
20111;BME280;10216;42.658;23.248;2023-07-08T03:59:44;93994.66;;;18.21;88.07
20111;BME280;10216;42.658;23.248;2023-07-08T04:02:11;93995.03;;;18.18;86.78
20111;BME280;10216;42.658;23.248;2023-07-08T04:04:37;93995.03;;;18.18;87.16
20111;BME280;10216;42.658;23.248;2023-07-08T04:07:04;93998.25;;;18.20;87.43
20111;BME280;10216;42.658;23.248;2023-07-08T04:09:29;93996.84;;;18.18;87.00
20111;BME280;10216;42.658;23.248;2023-07-08T04:11:55;93999.06;;;18.14;85.66
20111;BME280;10216;42.658;23.248;2023-07-08T04:14:20;94005.84;;;18.22;87.23
20111;BME280;10216;42.658;23.248;2023-07-08T04:17:06;94011.84;;;18.29;86.13
20111;BME280;10216;42.658;23.248;2023-07-08T04:19:32;94014.19;;;18.30;85.90
20111;BME280;10216;42.658;23.248;2023-07-08T04:21:58;94007.44;;;18.29;86.76
20111;BME280;10216;42.658;23.248;2023-07-08T04:24:23;93999.63;;;18.36;85.40
20111;BME280;10216;42.658;23.248;2023-07-08T04:26:49;94006.97;;;18.46;85.21
20111;BME280;10216;42.658;23.248;2023-07-08T04:29:19;94013.38;;;18.50;85.53
20111;BME280;10216;42.658;23.248;2023-07-08T04:31:45;94021.38;;;18.48;86.38
20111;BME280;10216;42.658;23.248;2023-07-08T04:34:11;94018.38;;;18.51;85.46
20111;BME280;10216;42.658;23.248;2023-07-08T04:36:37;94026.75;;;18.60;85.61
20111;BME280;10216;42.658;23.248;2023-07-08T04:39:03;94025.75;;;18.61;85.69
20111;BME280;10216;42.658;23.248;2023-07-08T04:41:30;94022.56;;;18.65;84.67
20111;BME280;10216;42.658;23.248;2023-07-08T04:43:55;94020.38;;;18.62;84.15
20111;BME280;10216;42.658;23.248;2023-07-08T04:49:10;94010.94;;;18.68;85.13
20111;BME280;10216;42.658;23.248;2023-07-08T04:51:36;94021.34;;;18.68;84.17
20111;BME280;10216;42.658;23.248;2023-07-08T04:54:02;94017.47;;;18.84;84.45
20111;BME280;10216;42.658;23.248;2023-07-08T04:56:40;94021.66;;;18.91;83.92
20111;BME280;10216;42.658;23.248;2023-07-08T04:59:09;94020.66;;;18.92;83.45
20111;BME280;10216;42.658;23.248;2023-07-08T05:01:35;94030.22;;;18.98;84.07
20111;BME280;10216;42.658;23.248;2023-07-08T05:04:00;94035.19;;;19.06;82.84
20111;BME280;10216;42.658;23.248;2023-07-08T05:06:27;94049.38;;;19.10;82.49
20111;BME280;10216;42.658;23.248;2023-07-08T05:08:53;94041.34;;;19.19;81.81
20111;BME280;10216;42.658;23.248;2023-07-08T05:11:18;94047.13;;;19.21;81.53
20111;BME280;10216;42.658;23.248;2023-07-08T05:13:43;94044.34;;;19.22;82.30
20111;BME280;10216;42.658;23.248;2023-07-08T05:16:09;94049.09;;;19.25;81.26
20111;BME280;10216;42.658;23.248;2023-07-08T05:18:34;94053.50;;;19.25;81.76
20111;BME280;10216;42.658;23.248;2023-07-08T05:21:00;94049.25;;;19.37;81.69
20111;BME280;10216;42.658;23.248;2023-07-08T05:23:26;94051.03;;;19.49;81.06
20111;BME280;10216;42.658;23.248;2023-07-08T05:25:51;94050.81;;;19.51;82.05
20111;BME280;10216;42.658;23.248;2023-07-08T05:28:17;94056.38;;;19.55;80.38
20111;BME280;10216;42.658;23.248;2023-07-08T05:30:42;94055.13;;;19.64;79.48
20111;BME280;10216;42.658;23.248;2023-07-08T05:33:09;94043.28;;;19.68;78.49
20111;BME280;10216;42.658;23.248;2023-07-08T05:35:34;94045.09;;;19.92;77.91
20111;BME280;10216;42.658;23.248;2023-07-08T05:38:01;94045.72;;;20.12;77.22
20111;BME280;10216;42.658;23.248;2023-07-08T05:40:26;94049.47;;;20.23;76.76
20111;BME280;10216;42.658;23.248;2023-07-08T05:42:52;94059.81;;;20.36;77.13
20111;BME280;10216;42.658;23.248;2023-07-08T05:45:17;94061.16;;;20.14;76.66
20111;BME280;10216;42.658;23.248;2023-07-08T05:47:43;94070.75;;;20.20;76.17
20111;BME280;10216;42.658;23.248;2023-07-08T05:50:08;94071.34;;;20.22;76.47
20111;BME280;10216;42.658;23.248;2023-07-08T05:52:34;94078.22;;;20.16;76.79
20111;BME280;10216;42.658;23.248;2023-07-08T05:54:59;94077.13;;;19.99;76.80
20111;BME280;10216;42.658;23.248;2023-07-08T05:57:25;94079.19;;;19.91;76.54
20111;BME280;10216;42.658;23.248;2023-07-08T05:59:50;94075.53;;;19.73;77.51
20111;BME280;10216;42.658;23.248;2023-07-08T06:02:17;94082.16;;;19.69;77.04
20111;BME280;10216;42.658;23.248;2023-07-08T06:04:42;94088.19;;;19.63;77.36
20111;BME280;10216;42.658;23.248;2023-07-08T06:07:08;94076.34;;;19.67;78.14
20111;BME280;10216;42.658;23.248;2023-07-08T06:09:33;94086.94;;;19.72;78.00
20111;BME280;10216;42.658;23.248;2023-07-08T06:11:59;94078.88;;;19.80;76.93
20111;BME280;10216;42.658;23.248;2023-07-08T06:14:24;94096.09;;;19.81;76.80
20111;BME280;10216;42.658;23.248;2023-07-08T06:16:50;94087.34;;;20.01;77.60
20111;BME280;10216;42.658;23.248;2023-07-08T06:19:15;94088.72;;;20.03;75.81
20111;BME280;10216;42.658;23.248;2023-07-08T06:21:42;94089.84;;;20.14;75.45
20111;BME280;10216;42.658;23.248;2023-07-08T06:24:08;94090.13;;;20.31;75.53
20111;BME280;10216;42.658;23.248;2023-07-08T06:26:34;94095.06;;;20.14;76.05
20111;BME280;10216;42.658;23.248;2023-07-08T06:28:59;94094.94;;;20.27;76.22
20111;BME280;10216;42.658;23.248;2023-07-08T06:31:25;94090.75;;;20.26;75.83
20111;BME280;10216;42.658;23.248;2023-07-08T06:33:50;94097.72;;;20.07;75.75
20111;BME280;10216;42.658;23.248;2023-07-08T06:36:16;94091.81;;;20.18;73.92
20111;BME280;10216;42.658;23.248;2023-07-08T06:38:41;94093.16;;;20.27;74.14
20111;BME280;10216;42.658;23.248;2023-07-08T06:41:06;94091.69;;;20.38;73.28
20111;BME280;10216;42.658;23.248;2023-07-08T06:43:32;94073.31;;;20.51;72.44
20111;BME280;10216;42.658;23.248;2023-07-08T06:45:57;94086.34;;;20.70;73.67
20111;BME280;10216;42.658;23.248;2023-07-08T06:48:23;94087.75;;;20.72;74.11
20111;BME280;10216;42.658;23.248;2023-07-08T06:50:49;94091.28;;;20.78;74.14
20111;BME280;10216;42.658;23.248;2023-07-08T06:53:15;94093.56;;;20.74;73.49
20111;BME280;10216;42.658;23.248;2023-07-08T06:55:41;94088.63;;;20.66;73.31
20111;BME280;10216;42.658;23.248;2023-07-08T06:58:06;94095.59;;;20.47;73.84
20111;BME280;10216;42.658;23.248;2023-07-08T07:00:32;94090.38;;;20.47;74.74
20111;BME280;10216;42.658;23.248;2023-07-08T07:02:57;94089.31;;;20.55;74.36
20111;BME280;10216;42.658;23.248;2023-07-08T07:05:23;94104.44;;;20.46;74.17
20111;BME280;10216;42.658;23.248;2023-07-08T07:07:48;94101.69;;;20.41;74.47
20111;BME280;10216;42.658;23.248;2023-07-08T07:10:14;94096.56;;;20.28;75.05
20111;BME280;10216;42.658;23.248;2023-07-08T07:12:39;94107.16;;;20.08;75.35
20111;BME280;10216;42.658;23.248;2023-07-08T07:15:05;94102.50;;;19.85;76.74
20111;BME280;10216;42.658;23.248;2023-07-08T07:17:31;94111.72;;;19.88;76.55
20111;BME280;10216;42.658;23.248;2023-07-08T07:19:56;94116.53;;;19.84;75.66
20111;BME280;10216;42.658;23.248;2023-07-08T07:22:22;94118.44;;;19.96;75.92
20111;BME280;10216;42.658;23.248;2023-07-08T07:24:48;94123.16;;;20.12;76.33
20111;BME280;10216;42.658;23.248;2023-07-08T07:27:13;94125.84;;;20.30;76.54
20111;BME280;10216;42.658;23.248;2023-07-08T07:29:42;94123.13;;;20.43;74.57
20111;BME280;10216;42.658;23.248;2023-07-08T07:32:09;94124.22;;;20.29;73.68
20111;BME280;10216;42.658;23.248;2023-07-08T07:34:35;94132.56;;;20.44;74.38
20111;BME280;10216;42.658;23.248;2023-07-08T07:37:01;94137.56;;;20.46;72.49
20111;BME280;10216;42.658;23.248;2023-07-08T07:39:26;94135.66;;;20.35;71.89
20111;BME280;10216;42.658;23.248;2023-07-08T07:41:53;94139.69;;;20.55;72.58
20111;BME280;10216;42.658;23.248;2023-07-08T07:44:19;94135.09;;;20.94;71.29
20111;BME280;10216;42.658;23.248;2023-07-08T07:46:44;94136.03;;;20.99;69.41
20111;BME280;10216;42.658;23.248;2023-07-08T07:49:09;94129.50;;;20.90;68.30
20111;BME280;10216;42.658;23.248;2023-07-08T07:51:35;94132.44;;;20.57;67.79
20111;BME280;10216;42.658;23.248;2023-07-08T07:54:00;94136.13;;;20.50;69.12
20111;BME280;10216;42.658;23.248;2023-07-08T07:56:26;94144.16;;;20.73;69.64
20111;BME280;10216;42.658;23.248;2023-07-08T07:58:51;94138.00;;;21.04;68.01
20111;BME280;10216;42.658;23.248;2023-07-08T08:01:17;94142.09;;;21.36;68.53
20111;BME280;10216;42.658;23.248;2023-07-08T08:03:43;94140.19;;;21.43;66.87
20111;BME280;10216;42.658;23.248;2023-07-08T08:06:08;94135.41;;;21.40;66.31
20111;BME280;10216;42.658;23.248;2023-07-08T08:08:34;94132.19;;;21.57;66.99
20111;BME280;10216;42.658;23.248;2023-07-08T08:10:59;94137.06;;;21.53;65.94
20111;BME280;10216;42.658;23.248;2023-07-08T08:13:25;94122.97;;;21.84;65.03
20111;BME280;10216;42.658;23.248;2023-07-08T08:15:56;94128.56;;;22.17;65.24
20111;BME280;10216;42.658;23.248;2023-07-08T08:18:22;94121.66;;;22.58;65.73
20111;BME280;10216;42.658;23.248;2023-07-08T08:20:50;94124.91;;;23.35;63.37
20111;BME280;10216;42.658;23.248;2023-07-08T08:23:16;94121.41;;;23.29;61.57
20111;BME280;10216;42.658;23.248;2023-07-08T08:25:41;94127.41;;;23.53;61.79
20111;BME280;10216;42.658;23.248;2023-07-08T08:28:07;94141.91;;;24.29;60.94
20111;BME280;10216;42.658;23.248;2023-07-08T08:30:32;94138.75;;;24.16;59.40
20111;BME280;10216;42.658;23.248;2023-07-08T08:32:58;94138.56;;;23.60;61.04
20111;BME280;10216;42.658;23.248;2023-07-08T08:35:23;94136.44;;;24.02;60.09
20111;BME280;10216;42.658;23.248;2023-07-08T08:37:49;94135.66;;;24.64;57.94
20111;BME280;10216;42.658;23.248;2023-07-08T08:40:18;94129.03;;;25.16;55.44
20111;BME280;10216;42.658;23.248;2023-07-08T08:42:50;94130.31;;;25.79;55.65
20111;BME280;10216;42.658;23.248;2023-07-08T08:45:17;94125.22;;;25.94;54.08
20111;BME280;10216;42.658;23.248;2023-07-08T08:47:49;94116.97;;;26.71;52.91
20111;BME280;10216;42.658;23.248;2023-07-08T08:53:05;94132.97;;;28.37;49.02
20111;BME280;10216;42.658;23.248;2023-07-08T08:55:34;94134.75;;;27.33;48.37
20111;BME280;10216;42.658;23.248;2023-07-08T09:01:01;94141.47;;;27.61;48.70
20111;BME280;10216;42.658;23.248;2023-07-08T09:08:47;94136.22;;;26.77;48.71
20111;BME280;10216;42.658;23.248;2023-07-08T09:14:00;94139.84;;;25.58;53.78
20111;BME280;10216;42.658;23.248;2023-07-08T09:17:04;94133.47;;;26.94;51.03
20111;BME280;10216;42.658;23.248;2023-07-08T09:19:41;94123.56;;;26.74;50.25
20111;BME280;10216;42.658;23.248;2023-07-08T09:22:21;94133.94;;;28.10;47.50
20111;BME280;10216;42.658;23.248;2023-07-08T09:24:56;94135.59;;;28.31;46.66
20111;BME280;10216;42.658;23.248;2023-07-08T09:27:23;94140.00;;;30.07;44.31
20111;BME280;10216;42.658;23.248;2023-07-08T09:29:49;94130.69;;;30.14;42.04
20111;BME280;10216;42.658;23.248;2023-07-08T09:32:22;94123.34;;;30.45;43.58
20111;BME280;10216;42.658;23.248;2023-07-08T09:34:56;94118.97;;;31.22;42.33
20111;BME280;10216;42.658;23.248;2023-07-08T09:37:29;94119.78;;;30.21;42.56
20111;BME280;10216;42.658;23.248;2023-07-08T09:39:57;94116.91;;;30.56;42.99
20111;BME280;10216;42.658;23.248;2023-07-08T09:42:28;94102.19;;;30.98;42.10
20111;BME280;10216;42.658;23.248;2023-07-08T09:44:59;94105.13;;;31.73;41.86
20111;BME280;10216;42.658;23.248;2023-07-08T09:47:34;94114.91;;;32.15;40.56
20111;BME280;10216;42.658;23.248;2023-07-08T09:50:00;94106.94;;;31.96;40.27
20111;BME280;10216;42.658;23.248;2023-07-08T09:52:29;94107.22;;;31.76;40.42
20111;BME280;10216;42.658;23.248;2023-07-08T09:54:56;94093.97;;;31.71;39.35
20111;BME280;10216;42.658;23.248;2023-07-08T09:57:27;94101.53;;;31.59;40.97
20111;BME280;10216;42.658;23.248;2023-07-08T09:59:57;94102.13;;;31.98;38.97
20111;BME280;10216;42.658;23.248;2023-07-08T10:02:31;94104.03;;;33.14;38.10
20111;BME280;10216;42.658;23.248;2023-07-08T10:05:00;94103.72;;;33.15;38.46
20111;BME280;10216;42.658;23.248;2023-07-08T10:07:28;94104.88;;;32.63;38.03
20111;BME280;10216;42.658;23.248;2023-07-08T10:09:57;94100.88;;;32.47;36.20
20111;BME280;10216;42.658;23.248;2023-07-08T10:12:24;94091.84;;;31.73;38.32
20111;BME280;10216;42.658;23.248;2023-07-08T10:14:52;94105.94;;;32.81;37.85
20111;BME280;10216;42.658;23.248;2023-07-08T10:17:21;94097.72;;;32.45;39.07
20111;BME280;10216;42.658;23.248;2023-07-08T10:19:47;94083.53;;;33.55;36.32
20111;BME280;10216;42.658;23.248;2023-07-08T10:25:01;94087.03;;;32.82;38.27
20111;BME280;10216;42.658;23.248;2023-07-08T10:27:36;94076.78;;;32.89;38.33
20111;BME280;10216;42.658;23.248;2023-07-08T10:32:48;94069.97;;;35.04;35.74
20111;BME280;10216;42.658;23.248;2023-07-08T10:35:30;94072.44;;;35.32;36.00
20111;BME280;10216;42.658;23.248;2023-07-08T10:41:18;94069.78;;;35.88;33.05
20111;BME280;10216;42.658;23.248;2023-07-08T10:44:04;94068.97;;;36.83;33.46
20111;BME280;10216;42.658;23.248;2023-07-08T10:46:41;94060.84;;;36.19;33.30
20111;BME280;10216;42.658;23.248;2023-07-08T10:51:55;94054.81;;;36.65;31.75
20111;BME280;10216;42.658;23.248;2023-07-08T11:00:00;94062.16;;;37.02;32.51
20111;BME280;10216;42.658;23.248;2023-07-08T11:02:55;94052.91;;;37.29;32.36
20111;BME280;10216;42.658;23.248;2023-07-08T11:05:45;94057.25;;;37.42;32.19
20111;BME280;10216;42.658;23.248;2023-07-08T11:08:30;94051.34;;;37.58;32.26
20111;BME280;10216;42.658;23.248;2023-07-08T11:11:26;94056.03;;;38.85;30.99
20111;BME280;10216;42.658;23.248;2023-07-08T11:14:05;94059.94;;;38.88;31.22
20111;BME280;10216;42.658;23.248;2023-07-08T11:16:40;94054.09;;;39.19;30.20
20111;BME280;10216;42.658;23.248;2023-07-08T11:19:11;94053.88;;;39.85;29.22
20111;BME280;10216;42.658;23.248;2023-07-08T11:21:50;94056.66;;;38.16;30.10
20111;BME280;10216;42.658;23.248;2023-07-08T11:24:37;94038.25;;;37.85;30.58
20111;BME280;10216;42.658;23.248;2023-07-08T11:27:10;94035.56;;;37.65;31.06
20111;BME280;10216;42.658;23.248;2023-07-08T11:29:46;94042.72;;;37.52;31.38
20111;BME280;10216;42.658;23.248;2023-07-08T11:32:16;94040.66;;;37.99;31.13
20111;BME280;10216;42.658;23.248;2023-07-08T11:34:44;94033.75;;;34.59;33.55
20111;BME280;10216;42.658;23.248;2023-07-08T11:37:13;94026.19;;;34.52;35.00
20111;BME280;10216;42.658;23.248;2023-07-08T11:39:40;94028.06;;;34.07;34.09
20111;BME280;10216;42.658;23.248;2023-07-08T11:44:43;94030.44;;;36.66;32.88
20111;BME280;10216;42.658;23.248;2023-07-08T11:47:16;94042.97;;;36.83;32.20
20111;BME280;10216;42.658;23.248;2023-07-08T11:49:43;94036.91;;;36.39;33.66
20111;BME280;10216;42.658;23.248;2023-07-08T11:52:17;94031.75;;;37.36;32.46
20111;BME280;10216;42.658;23.248;2023-07-08T11:54:46;94040.94;;;38.06;31.54
20111;BME280;10216;42.658;23.248;2023-07-08T11:57:18;94037.28;;;38.97;29.80
20111;BME280;10216;42.658;23.248;2023-07-08T11:59:43;94042.75;;;37.43;30.89
20111;BME280;10216;42.658;23.248;2023-07-08T12:02:16;94032.69;;;37.02;31.34
20111;BME280;10216;42.658;23.248;2023-07-08T12:05:10;94035.94;;;36.70;31.72
20111;BME280;10216;42.658;23.248;2023-07-08T12:07:37;94045.41;;;38.23;28.67
20111;BME280;10216;42.658;23.248;2023-07-08T12:10:13;94039.09;;;39.30;28.74
20111;BME280;10216;42.658;23.248;2023-07-08T12:12:42;94043.28;;;38.28;29.38
20111;BME280;10216;42.658;23.248;2023-07-08T12:15:16;94041.41;;;36.82;31.33
20111;BME280;10216;42.658;23.248;2023-07-08T12:17:46;94032.69;;;35.21;31.87
20111;BME280;10216;42.658;23.248;2023-07-08T12:20:22;94015.81;;;34.73;33.73
20111;BME280;10216;42.658;23.248;2023-07-08T12:22:48;94034.00;;;33.54;34.34
20111;BME280;10216;42.658;23.248;2023-07-08T12:25:15;94023.09;;;33.42;36.17
20111;BME280;10216;42.658;23.248;2023-07-08T12:27:43;94017.63;;;32.92;35.45
20111;BME280;10216;42.658;23.248;2023-07-08T12:30:10;94017.06;;;33.23;35.69
20111;BME280;10216;42.658;23.248;2023-07-08T12:32:37;94028.84;;;32.30;37.52
20111;BME280;10216;42.658;23.248;2023-07-08T12:35:02;94024.94;;;32.73;36.28
20111;BME280;10216;42.658;23.248;2023-07-08T12:37:31;94024.03;;;32.32;36.33
20111;BME280;10216;42.658;23.248;2023-07-08T12:39:57;94012.81;;;31.22;37.94
20111;BME280;10216;42.658;23.248;2023-07-08T12:42:30;94009.78;;;30.57;39.48
20111;BME280;10216;42.658;23.248;2023-07-08T12:44:56;94000.66;;;29.72;41.12
20111;BME280;10216;42.658;23.248;2023-07-08T12:47:22;94002.72;;;29.31;42.89
20111;BME280;10216;42.658;23.248;2023-07-08T12:49:47;93989.25;;;29.22;41.37
20111;BME280;10216;42.658;23.248;2023-07-08T12:52:21;94013.53;;;29.39;43.01
20111;BME280;10216;42.658;23.248;2023-07-08T12:54:47;94001.63;;;28.57;43.11
20111;BME280;10216;42.658;23.248;2023-07-08T12:57:15;94001.94;;;27.80;44.49
20111;BME280;10216;42.658;23.248;2023-07-08T12:59:41;93999.84;;;28.02;46.29
20111;BME280;10216;42.658;23.248;2023-07-08T13:02:18;94003.75;;;28.55;45.07
20111;BME280;10216;42.658;23.248;2023-07-08T13:04:48;94011.75;;;29.20;42.11
20111;BME280;10216;42.658;23.248;2023-07-08T13:07:35;94011.06;;;28.94;42.47
20111;BME280;10216;42.658;23.248;2023-07-08T13:10:03;94012.94;;;28.83;43.58
20111;BME280;10216;42.658;23.248;2023-07-08T13:12:31;94012.19;;;27.81;44.38
20111;BME280;10216;42.658;23.248;2023-07-08T13:14:58;94019.59;;;27.74;44.89
20111;BME280;10216;42.658;23.248;2023-07-08T13:17:25;94016.97;;;27.79;45.66
20111;BME280;10216;42.658;23.248;2023-07-08T13:19:51;94008.81;;;28.21;44.65
20111;BME280;10216;42.658;23.248;2023-07-08T13:22:19;94007.47;;;28.09;44.76
20111;BME280;10216;42.658;23.248;2023-07-08T13:24:45;94003.81;;;28.30;44.77
20111;BME280;10216;42.658;23.248;2023-07-08T13:27:22;94013.53;;;27.64;44.30
20111;BME280;10216;42.658;23.248;2023-07-08T13:29:51;94003.69;;;27.44;45.05
20111;BME280;10216;42.658;23.248;2023-07-08T13:32:16;94011.19;;;27.00;46.12
20111;BME280;10216;42.658;23.248;2023-07-08T13:34:42;93997.84;;;26.69;46.46
20111;BME280;10216;42.658;23.248;2023-07-08T13:37:12;93996.19;;;26.53;46.69